Terminal Aerodrome Forecast
Issued by NWS Sterling, VA

Current Version | Previous Version | Text Only | Print | Product List | Glossary Off
Versions: 1 2 3 4 5 6 7 8 9 10 11 12 13 14 15 16 17 18 19 20 21 22 23 24 25 26

758
FTUS41 KLWX 210525
TAFDCA
TAF
KDCA 210525Z 2106/2206 18003KT 3SM -DZ BR BKN004 OVC006
     FM210900 VRB03KT 1SM -DZ BR BKN003 OVC005
     FM211400 16004KT 5SM -DZ BR BKN008 OVC015
     FM211800 16004KT P6SM BKN010 OVC015
     FM212300 15004KT 5SM BR BKN005 OVC008=

USA.gov is the U.S. government's official web portal to all federal, state and local government web resources and services.